sensor_id;sensor_type;location;lat;lon;timestamp;temperature;humidity
17728;DHT22;8984;49.268;12.302;2022-10-31T00:01:25;11.20;99.90
17728;DHT22;8984;49.268;12.302;2022-10-31T00:03:52;11.20;99.90
17728;DHT22;8984;49.268;12.302;2022-10-31T00:06:19;11.10;99.90
17728;DHT22;8984;49.268;12.302;2022-10-31T00:08:46;11.10;99.90
17728;DHT22;8984;49.268;12.302;2022-10-31T00:11:13;11.10;99.90
17728;DHT22;8984;49.268;12.302;2022-10-31T00:13:40;11.10;99.90
17728;DHT22;8984;49.268;12.302;2022-10-31T00:16:14;11.00;99.90
17728;DHT22;8984;49.268;12.302;2022-10-31T00:18:42;11.00;99.90
17728;DHT22;8984;49.268;12.302;2022-10-31T00:21:08;11.00;99.90
17728;DHT22;8984;49.268;12.302;2022-10-31T00:23:35;11.00;99.90
17728;DHT22;8984;49.268;12.302;2022-10-31T00:26:03;11.00;99.90
17728;DHT22;8984;49.268;12.302;2022-10-31T00:28:30;11.00;99.90
17728;DHT22;8984;49.268;12.302;2022-10-31T00:30:58;11.00;99.90
17728;DHT22;8984;49.268;12.302;2022-10-31T00:33:27;11.00;99.90
17728;DHT22;8984;49.268;12.302;2022-10-31T00:35:54;11.00;99.90
17728;DHT22;8984;49.268;12.302;2022-10-31T00:38:21;11.00;99.90
17728;DHT22;8984;49.268;12.302;2022-10-31T00:40:48;11.00;99.90
17728;DHT22;8984;49.268;12.302;2022-10-31T00:43:15;11.00;99.90
17728;DHT22;8984;49.268;12.302;2022-10-31T00:45:42;11.00;99.90
17728;DHT22;8984;49.268;12.302;2022-10-31T00:48:09;11.00;99.90
17728;DHT22;8984;49.268;12.302;2022-10-31T00:50:38;11.00;99.90
17728;DHT22;8984;49.268;12.302;2022-10-31T00:53:05;11.00;99.90
17728;DHT22;8984;49.268;12.302;2022-10-31T00:55:32;11.00;99.90
17728;DHT22;8984;49.268;12.302;2022-10-31T00:57:59;10.90;99.90
17728;DHT22;8984;49.268;12.302;2022-10-31T01:00:26;10.90;99.90
17728;DHT22;8984;49.268;12.302;2022-10-31T01:02:53;10.90;99.90
17728;DHT22;8984;49.268;12.302;2022-10-31T01:05:20;11.00;99.90
17728;DHT22;8984;49.268;12.302;2022-10-31T01:07:48;10.90;99.90
17728;DHT22;8984;49.268;12.302;2022-10-31T01:10:15;10.90;99.90
17728;DHT22;8984;49.268;12.302;2022-10-31T01:12:45;10.90;99.90
17728;DHT22;8984;49.268;12.302;2022-10-31T01:15:14;10.90;99.90
17728;DHT22;8984;49.268;12.302;2022-10-31T01:17:41;10.80;99.90
17728;DHT22;8984;49.268;12.302;2022-10-31T01:20:09;10.80;99.90
17728;DHT22;8984;49.268;12.302;2022-10-31T01:22:36;10.80;99.90
17728;DHT22;8984;49.268;12.302;2022-10-31T01:25:06;10.80;99.90
17728;DHT22;8984;49.268;12.302;2022-10-31T01:27:34;10.80;99.90
17728;DHT22;8984;49.268;12.302;2022-10-31T01:30:01;10.80;99.90
17728;DHT22;8984;49.268;12.302;2022-10-31T01:32:28;10.80;99.90
17728;DHT22;8984;49.268;12.302;2022-10-31T01:34:55;10.80;99.90
17728;DHT22;8984;49.268;12.302;2022-10-31T01:37:21;10.80;99.90
17728;DHT22;8984;49.268;12.302;2022-10-31T01:39:48;10.80;99.90
17728;DHT22;8984;49.268;12.302;2022-10-31T01:42:19;10.80;99.90
17728;DHT22;8984;49.268;12.302;2022-10-31T01:44:58;10.70;99.90
17728;DHT22;8984;49.268;12.302;2022-10-31T01:47:35;10.60;99.90
17728;DHT22;8984;49.268;12.302;2022-10-31T01:50:10;10.50;99.90
17728;DHT22;8984;49.268;12.302;2022-10-31T01:52:38;10.40;99.90
17728;DHT22;8984;49.268;12.302;2022-10-31T01:55:09;10.40;99.90
17728;DHT22;8984;49.268;12.302;2022-10-31T01:57:41;10.40;99.90
17728;DHT22;8984;49.268;12.302;2022-10-31T02:00:11;10.40;99.90
17728;DHT22;8984;49.268;12.302;2022-10-31T02:02:38;10.40;99.90
17728;DHT22;8984;49.268;12.302;2022-10-31T02:05:08;10.50;99.90
17728;DHT22;8984;49.268;12.302;2022-10-31T02:07:39;10.40;99.90
17728;DHT22;8984;49.268;12.302;2022-10-31T02:10:07;10.50;99.90
17728;DHT22;8984;49.268;12.302;2022-10-31T02:12:34;10.40;99.90
17728;DHT22;8984;49.268;12.302;2022-10-31T02:15:05;10.50;99.90
17728;DHT22;8984;49.268;12.302;2022-10-31T02:17:33;10.50;99.90
17728;DHT22;8984;49.268;12.302;2022-10-31T02:20:07;10.50;99.90
17728;DHT22;8984;49.268;12.302;2022-10-31T02:22:41;10.50;99.90
17728;DHT22;8984;49.268;12.302;2022-10-31T02:25:28;10.50;99.90
17728;DHT22;8984;49.268;12.302;2022-10-31T02:28:19;10.50;99.90
17728;DHT22;8984;49.268;12.302;2022-10-31T02:31:05;10.50;99.90
17728;DHT22;8984;49.268;12.302;2022-10-31T02:33:41;10.40;99.90
17728;DHT22;8984;49.268;12.302;2022-10-31T02:36:12;10.40;99.90
17728;DHT22;8984;49.268;12.302;2022-10-31T02:38:51;10.40;99.90
17728;DHT22;8984;49.268;12.302;2022-10-31T02:41:24;10.40;99.90
17728;DHT22;8984;49.268;12.302;2022-10-31T02:44:00;10.40;99.90
17728;DHT22;8984;49.268;12.302;2022-10-31T02:46:35;10.40;99.90
17728;DHT22;8984;49.268;12.302;2022-10-31T02:49:09;10.40;99.90
17728;DHT22;8984;49.268;12.302;2022-10-31T02:51:39;10.40;99.90
17728;DHT22;8984;49.268;12.302;2022-10-31T02:54:17;10.40;99.90
17728;DHT22;8984;49.268;12.302;2022-10-31T02:56:44;10.40;99.90
17728;DHT22;8984;49.268;12.302;2022-10-31T02:59:11;10.40;99.90
17728;DHT22;8984;49.268;12.302;2022-10-31T03:02:06;10.40;99.90
17728;DHT22;8984;49.268;12.302;2022-10-31T03:05:02;10.40;99.90
17728;DHT22;8984;49.268;12.302;2022-10-31T03:07:41;10.40;99.90
17728;DHT22;8984;49.268;12.302;2022-10-31T03:10:14;10.40;99.90
17728;DHT22;8984;49.268;12.302;2022-10-31T03:12:48;10.40;99.90
17728;DHT22;8984;49.268;12.302;2022-10-31T03:15:21;10.50;99.90
17728;DHT22;8984;49.268;12.302;2022-10-31T03:17:55;10.40;99.90
17728;DHT22;8984;49.268;12.302;2022-10-31T03:20:27;10.40;99.90
17728;DHT22;8984;49.268;12.302;2022-10-31T03:22:56;10.30;99.90
17728;DHT22;8984;49.268;12.302;2022-10-31T03:25:26;10.40;99.90
17728;DHT22;8984;49.268;12.302;2022-10-31T03:27:54;10.30;99.90
17728;DHT22;8984;49.268;12.302;2022-10-31T03:30:21;10.20;99.90
17728;DHT22;8984;49.268;12.302;2022-10-31T03:32:52;10.20;99.90
17728;DHT22;8984;49.268;12.302;2022-10-31T03:35:23;10.20;99.90
17728;DHT22;8984;49.268;12.302;2022-10-31T03:37:52;10.20;99.90
17728;DHT22;8984;49.268;12.302;2022-10-31T03:40:21;10.20;99.90
17728;DHT22;8984;49.268;12.302;2022-10-31T03:42:53;10.30;99.90
17728;DHT22;8984;49.268;12.302;2022-10-31T03:45:23;10.30;99.90
17728;DHT22;8984;49.268;12.302;2022-10-31T03:47:53;10.20;99.90
17728;DHT22;8984;49.268;12.302;2022-10-31T03:50:21;10.30;99.90
17728;DHT22;8984;49.268;12.302;2022-10-31T03:52:55;10.30;99.90
17728;DHT22;8984;49.268;12.302;2022-10-31T03:55:28;10.30;99.90
17728;DHT22;8984;49.268;12.302;2022-10-31T03:57:59;10.20;99.90
17728;DHT22;8984;49.268;12.302;2022-10-31T04:00:26;10.20;99.90
17728;DHT22;8984;49.268;12.302;2022-10-31T04:02:59;10.20;99.90
17728;DHT22;8984;49.268;12.302;2022-10-31T04:05:27;10.20;99.90
17728;DHT22;8984;49.268;12.302;2022-10-31T04:07:57;10.10;99.90
17728;DHT22;8984;49.268;12.302;2022-10-31T04:10:26;10.10;99.90
17728;DHT22;8984;49.268;12.302;2022-10-31T04:12:58;10.20;99.90
17728;DHT22;8984;49.268;12.302;2022-10-31T04:15:28;10.20;99.90
17728;DHT22;8984;49.268;12.302;2022-10-31T04:17:58;10.00;99.90
17728;DHT22;8984;49.268;12.302;2022-10-31T04:20:33;10.00;99.90
17728;DHT22;8984;49.268;12.302;2022-10-31T04:23:00;10.00;99.90
17728;DHT22;8984;49.268;12.302;2022-10-31T04:25:28;10.00;99.90
17728;DHT22;8984;49.268;12.302;2022-10-31T04:27:54;9.90;99.90
17728;DHT22;8984;49.268;12.302;2022-10-31T04:30:21;9.90;99.90
17728;DHT22;8984;49.268;12.302;2022-10-31T04:32:48;9.90;99.90
17728;DHT22;8984;49.268;12.302;2022-10-31T04:35:17;9.90;99.90
17728;DHT22;8984;49.268;12.302;2022-10-31T04:37:43;9.90;99.90
17728;DHT22;8984;49.268;12.302;2022-10-31T04:40:11;9.90;99.90
17728;DHT22;8984;49.268;12.302;2022-10-31T04:42:38;9.90;99.90
17728;DHT22;8984;49.268;12.302;2022-10-31T04:45:05;9.90;99.90
17728;DHT22;8984;49.268;12.302;2022-10-31T04:47:32;9.90;99.90
17728;DHT22;8984;49.268;12.302;2022-10-31T04:50:00;9.90;99.90
17728;DHT22;8984;49.268;12.302;2022-10-31T04:52:28;9.80;99.90
17728;DHT22;8984;49.268;12.302;2022-10-31T04:54:55;9.80;99.90
17728;DHT22;8984;49.268;12.302;2022-10-31T04:57:21;9.80;99.90
17728;DHT22;8984;49.268;12.302;2022-10-31T04:59:48;9.80;99.90
17728;DHT22;8984;49.268;12.302;2022-10-31T05:02:15;9.80;99.90
17728;DHT22;8984;49.268;12.302;2022-10-31T05:04:42;9.80;99.90
17728;DHT22;8984;49.268;12.302;2022-10-31T05:07:09;9.80;99.90
17728;DHT22;8984;49.268;12.302;2022-10-31T05:09:37;9.80;99.90
17728;DHT22;8984;49.268;12.302;2022-10-31T05:12:04;9.80;99.90
17728;DHT22;8984;49.268;12.302;2022-10-31T05:14:30;9.80;99.90
17728;DHT22;8984;49.268;12.302;2022-10-31T05:16:57;9.70;99.90
17728;DHT22;8984;49.268;12.302;2022-10-31T05:19:24;9.80;99.90
17728;DHT22;8984;49.268;12.302;2022-10-31T05:21:50;9.70;99.90
17728;DHT22;8984;49.268;12.302;2022-10-31T05:24:17;9.80;99.90
17728;DHT22;8984;49.268;12.302;2022-10-31T05:26:48;9.80;99.90
17728;DHT22;8984;49.268;12.302;2022-10-31T05:29:15;9.80;99.90
17728;DHT22;8984;49.268;12.302;2022-10-31T05:31:42;9.80;99.90
17728;DHT22;8984;49.268;12.302;2022-10-31T05:34:09;9.90;99.90
17728;DHT22;8984;49.268;12.302;2022-10-31T05:36:36;9.70;99.90
17728;DHT22;8984;49.268;12.302;2022-10-31T05:39:02;9.60;99.90
17728;DHT22;8984;49.268;12.302;2022-10-31T05:41:29;9.60;99.90
17728;DHT22;8984;49.268;12.302;2022-10-31T05:43:57;9.60;99.90
17728;DHT22;8984;49.268;12.302;2022-10-31T05:46:26;9.60;99.90
17728;DHT22;8984;49.268;12.302;2022-10-31T05:48:52;9.60;99.90
17728;DHT22;8984;49.268;12.302;2022-10-31T05:51:19;9.60;99.90
17728;DHT22;8984;49.268;12.302;2022-10-31T05:53:46;9.60;99.90
17728;DHT22;8984;49.268;12.302;2022-10-31T05:56:13;9.60;99.90
17728;DHT22;8984;49.268;12.302;2022-10-31T05:58:40;9.60;99.90
17728;DHT22;8984;49.268;12.302;2022-10-31T06:01:08;9.60;99.90
17728;DHT22;8984;49.268;12.302;2022-10-31T06:03:35;9.50;99.90
17728;DHT22;8984;49.268;12.302;2022-10-31T06:06:02;9.50;99.90
17728;DHT22;8984;49.268;12.302;2022-10-31T06:08:29;9.50;99.90
17728;DHT22;8984;49.268;12.302;2022-10-31T06:10:56;9.40;99.90
17728;DHT22;8984;49.268;12.302;2022-10-31T06:13:22;9.40;99.90
17728;DHT22;8984;49.268;12.302;2022-10-31T06:15:49;9.50;99.90
17728;DHT22;8984;49.268;12.302;2022-10-31T06:18:18;9.50;99.90
17728;DHT22;8984;49.268;12.302;2022-10-31T06:20:44;9.50;99.90
17728;DHT22;8984;49.268;12.302;2022-10-31T06:23:11;9.50;99.90
17728;DHT22;8984;49.268;12.302;2022-10-31T06:25:38;9.50;99.90
17728;DHT22;8984;49.268;12.302;2022-10-31T06:28:05;9.50;99.90
17728;DHT22;8984;49.268;12.302;2022-10-31T06:30:32;9.50;99.90
17728;DHT22;8984;49.268;12.302;2022-10-31T06:33:03;9.50;99.90
17728;DHT22;8984;49.268;12.302;2022-10-31T06:35:31;9.50;99.90
17728;DHT22;8984;49.268;12.302;2022-10-31T06:37:59;9.50;99.90
17728;DHT22;8984;49.268;12.302;2022-10-31T06:40:26;9.50;99.90
17728;DHT22;8984;49.268;12.302;2022-10-31T06:42:57;9.50;99.90
17728;DHT22;8984;49.268;12.302;2022-10-31T06:45:24;9.50;99.90
17728;DHT22;8984;49.268;12.302;2022-10-31T06:47:51;9.50;99.90
17728;DHT22;8984;49.268;12.302;2022-10-31T06:50:18;9.60;99.90
17728;DHT22;8984;49.268;12.302;2022-10-31T06:52:51;9.60;99.90
17728;DHT22;8984;49.268;12.302;2022-10-31T06:55:18;9.70;99.90
17728;DHT22;8984;49.268;12.302;2022-10-31T06:57:51;9.70;99.90
17728;DHT22;8984;49.268;12.302;2022-10-31T07:00:18;9.70;99.90
17728;DHT22;8984;49.268;12.302;2022-10-31T07:02:53;9.80;99.90
17728;DHT22;8984;49.268;12.302;2022-10-31T07:05:20;9.80;99.90
17728;DHT22;8984;49.268;12.302;2022-10-31T07:07:53;9.80;99.90
17728;DHT22;8984;49.268;12.302;2022-10-31T07:10:20;9.90;99.90
17728;DHT22;8984;49.268;12.302;2022-10-31T07:12:53;10.00;99.90
17728;DHT22;8984;49.268;12.302;2022-10-31T07:15:20;10.10;99.90
17728;DHT22;8984;49.268;12.302;2022-10-31T07:17:46;10.10;99.90
17728;DHT22;8984;49.268;12.302;2022-10-31T07:20:13;10.20;99.90
17728;DHT22;8984;49.268;12.302;2022-10-31T07:22:40;10.30;99.90
17728;DHT22;8984;49.268;12.302;2022-10-31T07:25:09;10.30;99.90
17728;DHT22;8984;49.268;12.302;2022-10-31T07:27:36;10.40;99.90
17728;DHT22;8984;49.268;12.302;2022-10-31T07:30:04;10.40;99.90
17728;DHT22;8984;49.268;12.302;2022-10-31T07:32:37;10.50;99.90
17728;DHT22;8984;49.268;12.302;2022-10-31T07:35:05;10.60;99.90
17728;DHT22;8984;49.268;12.302;2022-10-31T07:37:31;10.70;99.90
17728;DHT22;8984;49.268;12.302;2022-10-31T07:39:58;10.80;99.90
17728;DHT22;8984;49.268;12.302;2022-10-31T07:42:27;10.90;99.90
17728;DHT22;8984;49.268;12.302;2022-10-31T07:44:54;11.00;99.90
17728;DHT22;8984;49.268;12.302;2022-10-31T07:47:21;11.10;99.90
17728;DHT22;8984;49.268;12.302;2022-10-31T07:49:47;11.20;99.90
17728;DHT22;8984;49.268;12.302;2022-10-31T07:52:14;11.30;99.90
17728;DHT22;8984;49.268;12.302;2022-10-31T07:54:41;11.40;99.90
17728;DHT22;8984;49.268;12.302;2022-10-31T07:57:08;11.50;99.90
17728;DHT22;8984;49.268;12.302;2022-10-31T07:59:36;11.60;99.90
17728;DHT22;8984;49.268;12.302;2022-10-31T08:02:03;11.70;99.90
17728;DHT22;8984;49.268;12.302;2022-10-31T08:04:29;11.70;99.90
17728;DHT22;8984;49.268;12.302;2022-10-31T08:06:56;11.80;99.90
17728;DHT22;8984;49.268;12.302;2022-10-31T08:09:23;11.80;99.90
17728;DHT22;8984;49.268;12.302;2022-10-31T08:11:52;11.80;99.90
17728;DHT22;8984;49.268;12.302;2022-10-31T08:14:19;11.90;99.90
17728;DHT22;8984;49.268;12.302;2022-10-31T08:16:47;12.10;99.90
17728;DHT22;8984;49.268;12.302;2022-10-31T08:19:14;12.20;99.90
17728;DHT22;8984;49.268;12.302;2022-10-31T08:21:41;12.30;99.90
17728;DHT22;8984;49.268;12.302;2022-10-31T08:24:08;12.30;99.90
17728;DHT22;8984;49.268;12.302;2022-10-31T08:26:34;12.50;99.90
17728;DHT22;8984;49.268;12.302;2022-10-31T08:29:02;12.70;99.90
17728;DHT22;8984;49.268;12.302;2022-10-31T08:31:29;12.90;99.90
17728;DHT22;8984;49.268;12.302;2022-10-31T08:33:57;13.10;99.90
17728;DHT22;8984;49.268;12.302;2022-10-31T08:36:24;13.30;99.90
17728;DHT22;8984;49.268;12.302;2022-10-31T08:38:51;13.50;99.90
17728;DHT22;8984;49.268;12.302;2022-10-31T08:41:18;13.60;99.90
17728;DHT22;8984;49.268;12.302;2022-10-31T08:43:45;13.80;99.90
17728;DHT22;8984;49.268;12.302;2022-10-31T08:46:12;13.90;99.90
17728;DHT22;8984;49.268;12.302;2022-10-31T08:48:39;14.10;99.90
17728;DHT22;8984;49.268;12.302;2022-10-31T08:51:08;14.20;99.90
17728;DHT22;8984;49.268;12.302;2022-10-31T08:53:35;14.30;99.90
17728;DHT22;8984;49.268;12.302;2022-10-31T08:56:02;14.40;99.90
17728;DHT22;8984;49.268;12.302;2022-10-31T08:58:29;14.30;99.90
17728;DHT22;8984;49.268;12.302;2022-10-31T09:00:59;14.50;99.90
17728;DHT22;8984;49.268;12.302;2022-10-31T09:03:28;14.60;99.90
17728;DHT22;8984;49.268;12.302;2022-10-31T09:05:57;14.80;99.90
17728;DHT22;8984;49.268;12.302;2022-10-31T09:08:25;14.90;99.90
17728;DHT22;8984;49.268;12.302;2022-10-31T09:10:56;14.80;99.90
17728;DHT22;8984;49.268;12.302;2022-10-31T09:13:23;14.90;99.90
17728;DHT22;8984;49.268;12.302;2022-10-31T09:15:50;15.10;99.90
17728;DHT22;8984;49.268;12.302;2022-10-31T09:18:19;15.30;99.90
17728;DHT22;8984;49.268;12.302;2022-10-31T09:20:47;15.50;99.90
17728;DHT22;8984;49.268;12.302;2022-10-31T09:23:15;15.70;99.90
17728;DHT22;8984;49.268;12.302;2022-10-31T09:25:44;15.90;99.90
17728;DHT22;8984;49.268;12.302;2022-10-31T09:28:13;16.10;99.90
17728;DHT22;8984;49.268;12.302;2022-10-31T09:30:40;16.30;99.90
17728;DHT22;8984;49.268;12.302;2022-10-31T09:33:10;16.40;99.90
17728;DHT22;8984;49.268;12.302;2022-10-31T09:35:38;16.50;99.90
17728;DHT22;8984;49.268;12.302;2022-10-31T09:38:08;16.70;99.90
17728;DHT22;8984;49.268;12.302;2022-10-31T09:40:37;16.80;99.90
17728;DHT22;8984;49.268;12.302;2022-10-31T09:43:13;17.00;99.90
17728;DHT22;8984;49.268;12.302;2022-10-31T09:45:47;17.00;99.90
17728;DHT22;8984;49.268;12.302;2022-10-31T09:48:28;17.20;99.90
17728;DHT22;8984;49.268;12.302;2022-10-31T09:51:01;17.30;99.90
17728;DHT22;8984;49.268;12.302;2022-10-31T09:53:35;17.40;99.90
17728;DHT22;8984;49.268;12.302;2022-10-31T09:56:07;17.60;99.90
17728;DHT22;8984;49.268;12.302;2022-10-31T09:58:41;17.70;99.90
17728;DHT22;8984;49.268;12.302;2022-10-31T10:01:27;17.80;99.90
17728;DHT22;8984;49.268;12.302;2022-10-31T10:03:59;18.00;99.90
17728;DHT22;8984;49.268;12.302;2022-10-31T10:06:29;18.10;99.90
17728;DHT22;8984;49.268;12.302;2022-10-31T10:08:56;18.30;99.90
17728;DHT22;8984;49.268;12.302;2022-10-31T10:11:34;18.40;99.90
17728;DHT22;8984;49.268;12.302;2022-10-31T10:14:15;18.50;99.90
17728;DHT22;8984;49.268;12.302;2022-10-31T10:16:58;18.60;99.90
17728;DHT22;8984;49.268;12.302;2022-10-31T10:19:46;18.70;99.90
17728;DHT22;8984;49.268;12.302;2022-10-31T10:22:20;18.90;99.90
17728;DHT22;8984;49.268;12.302;2022-10-31T10:24:59;19.00;99.90
17728;DHT22;8984;49.268;12.302;2022-10-31T10:27:37;18.90;99.90
17728;DHT22;8984;49.268;12.302;2022-10-31T10:30:15;18.90;99.90
17728;DHT22;8984;49.268;12.302;2022-10-31T10:32:45;19.10;99.90
17728;DHT22;8984;49.268;12.302;2022-10-31T10:35:19;19.30;99.90
17728;DHT22;8984;49.268;12.302;2022-10-31T10:37:49;19.40;99.90
17728;DHT22;8984;49.268;12.302;2022-10-31T10:40:20;19.60;99.90
17728;DHT22;8984;49.268;12.302;2022-10-31T10:42:58;19.80;99.90
17728;DHT22;8984;49.268;12.302;2022-10-31T10:45:49;19.80;99.90
17728;DHT22;8984;49.268;12.302;2022-10-31T10:48:42;19.90;99.90
17728;DHT22;8984;49.268;12.302;2022-10-31T10:51:20;19.80;99.90
17728;DHT22;8984;49.268;12.302;2022-10-31T10:56:52;19.90;99.90
17728;DHT22;8984;49.268;12.302;2022-10-31T10:59:22;19.90;99.90
17728;DHT22;8984;49.268;12.302;2022-10-31T11:01:51;20.00;99.90
17728;DHT22;8984;49.268;12.302;2022-10-31T11:04:28;20.10;99.90
17728;DHT22;8984;49.268;12.302;2022-10-31T11:07:00;20.10;99.90
17728;DHT22;8984;49.268;12.302;2022-10-31T11:09:27;20.30;99.90
17728;DHT22;8984;49.268;12.302;2022-10-31T11:11:54;20.50;99.90
17728;DHT22;8984;49.268;12.302;2022-10-31T11:14:22;20.70;99.90
17728;DHT22;8984;49.268;12.302;2022-10-31T11:16:54;20.80;99.90
17728;DHT22;8984;49.268;12.302;2022-10-31T11:19:22;21.00;99.90
17728;DHT22;8984;49.268;12.302;2022-10-31T11:21:50;21.20;99.90
17728;DHT22;8984;49.268;12.302;2022-10-31T11:24:19;21.30;99.90
17728;DHT22;8984;49.268;12.302;2022-10-31T11:26:48;21.30;99.90
17728;DHT22;8984;49.268;12.302;2022-10-31T11:29:17;21.40;99.90
17728;DHT22;8984;49.268;12.302;2022-10-31T11:31:47;21.50;99.90
17728;DHT22;8984;49.268;12.302;2022-10-31T11:34:30;21.60;99.90
17728;DHT22;8984;49.268;12.302;2022-10-31T11:37:03;21.70;99.90
17728;DHT22;8984;49.268;12.302;2022-10-31T11:39:30;21.80;99.90
17728;DHT22;8984;49.268;12.302;2022-10-31T11:42:00;21.90;99.90
17728;DHT22;8984;49.268;12.302;2022-10-31T11:44:29;22.00;99.90
17728;DHT22;8984;49.268;12.302;2022-10-31T11:46:59;21.90;99.90
17728;DHT22;8984;49.268;12.302;2022-10-31T11:49:32;22.00;99.90
17728;DHT22;8984;49.268;12.302;2022-10-31T11:52:05;22.10;99.90
17728;DHT22;8984;49.268;12.302;2022-10-31T11:54:41;22.20;99.90
17728;DHT22;8984;49.268;12.302;2022-10-31T11:57:26;22.30;99.90
17728;DHT22;8984;49.268;12.302;2022-10-31T11:59:54;22.40;99.90
17728;DHT22;8984;49.268;12.302;2022-10-31T12:02:21;22.50;99.90
17728;DHT22;8984;49.268;12.302;2022-10-31T12:04:57;22.60;99.90
17728;DHT22;8984;49.268;12.302;2022-10-31T12:07:25;22.70;99.90
17728;DHT22;8984;49.268;12.302;2022-10-31T12:09:52;22.70;99.90
17728;DHT22;8984;49.268;12.302;2022-10-31T12:15:29;22.70;99.90
17728;DHT22;8984;49.268;12.302;2022-10-31T12:18:22;22.80;99.90
17728;DHT22;8984;49.268;12.302;2022-10-31T12:21:00;22.70;99.90
17728;DHT22;8984;49.268;12.302;2022-10-31T12:23:38;22.80;99.90
17728;DHT22;8984;49.268;12.302;2022-10-31T12:26:12;22.60;99.90
17728;DHT22;8984;49.268;12.302;2022-10-31T12:29:02;22.60;99.90
17728;DHT22;8984;49.268;12.302;2022-10-31T12:31:39;22.60;99.90
17728;DHT22;8984;49.268;12.302;2022-10-31T12:34:33;22.60;99.90
17728;DHT22;8984;49.268;12.302;2022-10-31T12:37:07;22.60;99.90
17728;DHT22;8984;49.268;12.302;2022-10-31T12:39:44;22.70;99.90
17728;DHT22;8984;49.268;12.302;2022-10-31T12:42:22;22.60;99.90
17728;DHT22;8984;49.268;12.302;2022-10-31T12:45:09;22.70;99.90
17728;DHT22;8984;49.268;12.302;2022-10-31T12:47:58;22.70;99.90
17728;DHT22;8984;49.268;12.302;2022-10-31T12:50:34;22.60;99.90
17728;DHT22;8984;49.268;12.302;2022-10-31T12:53:18;22.60;99.90
17728;DHT22;8984;49.268;12.302;2022-10-31T12:55:55;22.60;99.90
17728;DHT22;8984;49.268;12.302;2022-10-31T12:58:29;22.60;99.90
17728;DHT22;8984;49.268;12.302;2022-10-31T13:01:04;22.50;99.90
17728;DHT22;8984;49.268;12.302;2022-10-31T13:03:38;22.60;99.90
17728;DHT22;8984;49.268;12.302;2022-10-31T13:06:13;22.60;99.90
17728;DHT22;8984;49.268;12.302;2022-10-31T13:08:47;22.60;99.90
17728;DHT22;8984;49.268;12.302;2022-10-31T13:11:18;22.60;99.90
17728;DHT22;8984;49.268;12.302;2022-10-31T13:13:54;22.50;99.90
17728;DHT22;8984;49.268;12.302;2022-10-31T13:16:25;22.60;99.90
17728;DHT22;8984;49.268;12.302;2022-10-31T13:18:57;22.70;99.90
17728;DHT22;8984;49.268;12.302;2022-10-31T13:21:30;22.70;99.90
17728;DHT22;8984;49.268;12.302;2022-10-31T13:24:03;22.80;99.90
17728;DHT22;8984;49.268;12.302;2022-10-31T13:26:37;22.80;99.90
17728;DHT22;8984;49.268;12.302;2022-10-31T13:29:12;22.50;99.90
17728;DHT22;8984;49.268;12.302;2022-10-31T13:31:40;22.50;99.90
17728;DHT22;8984;49.268;12.302;2022-10-31T13:34:13;22.40;99.90
17728;DHT22;8984;49.268;12.302;2022-10-31T13:36:48;22.50;99.90
17728;DHT22;8984;49.268;12.302;2022-10-31T13:39:25;22.50;99.90
17728;DHT22;8984;49.268;12.302;2022-10-31T13:42:02;22.50;99.90
17728;DHT22;8984;49.268;12.302;2022-10-31T13:44:32;22.50;99.90
17728;DHT22;8984;49.268;12.302;2022-10-31T13:47:02;22.50;99.90
17728;DHT22;8984;49.268;12.302;2022-10-31T13:49:39;22.40;99.90
17728;DHT22;8984;49.268;12.302;2022-10-31T13:52:14;22.50;99.90
17728;DHT22;8984;49.268;12.302;2022-10-31T13:54:44;22.40;99.90
17728;DHT22;8984;49.268;12.302;2022-10-31T13:57:21;22.20;99.90
17728;DHT22;8984;49.268;12.302;2022-10-31T13:59:51;22.20;99.90
17728;DHT22;8984;49.268;12.302;2022-10-31T14:02:25;22.20;99.90
17728;DHT22;8984;49.268;12.302;2022-10-31T14:04:56;22.10;99.90
17728;DHT22;8984;49.268;12.302;2022-10-31T14:07:25;22.10;99.90
17728;DHT22;8984;49.268;12.302;2022-10-31T14:09:56;22.00;99.90
17728;DHT22;8984;49.268;12.302;2022-10-31T14:12:28;21.90;99.90
17728;DHT22;8984;49.268;12.302;2022-10-31T14:15:13;21.90;99.90
17728;DHT22;8984;49.268;12.302;2022-10-31T14:17:46;21.80;99.90
17728;DHT22;8984;49.268;12.302;2022-10-31T14:20:34;21.80;99.90
17728;DHT22;8984;49.268;12.302;2022-10-31T14:23:25;21.70;99.90
17728;DHT22;8984;49.268;12.302;2022-10-31T14:26:19;21.60;99.90
17728;DHT22;8984;49.268;12.302;2022-10-31T14:28:48;21.60;99.90
17728;DHT22;8984;49.268;12.302;2022-10-31T14:31:29;21.40;99.90
17728;DHT22;8984;49.268;12.302;2022-10-31T14:33:59;21.40;99.90
17728;DHT22;8984;49.268;12.302;2022-10-31T14:36:33;21.30;99.90
17728;DHT22;8984;49.268;12.302;2022-10-31T14:39:11;21.10;99.90
17728;DHT22;8984;49.268;12.302;2022-10-31T14:41:57;21.00;99.90
17728;DHT22;8984;49.268;12.302;2022-10-31T14:44:51;20.90;99.90
17728;DHT22;8984;49.268;12.302;2022-10-31T14:47:31;20.80;99.90
17728;DHT22;8984;49.268;12.302;2022-10-31T14:50:17;20.70;99.90
17728;DHT22;8984;49.268;12.302;2022-10-31T14:52:49;20.70;99.90
17728;DHT22;8984;49.268;12.302;2022-10-31T14:55:17;20.60;99.90
17728;DHT22;8984;49.268;12.302;2022-10-31T14:57:49;20.60;99.90
17728;DHT22;8984;49.268;12.302;2022-10-31T15:00:19;20.60;99.90
17728;DHT22;8984;49.268;12.302;2022-10-31T15:02:54;20.50;99.90
17728;DHT22;8984;49.268;12.302;2022-10-31T15:05:26;20.50;99.90
17728;DHT22;8984;49.268;12.302;2022-10-31T15:07:54;20.40;99.90
17728;DHT22;8984;49.268;12.302;2022-10-31T15:10:23;20.30;99.90
17728;DHT22;8984;49.268;12.302;2022-10-31T15:12:52;20.20;99.90
17728;DHT22;8984;49.268;12.302;2022-10-31T15:15:21;20.10;99.90
17728;DHT22;8984;49.268;12.302;2022-10-31T15:17:51;20.00;99.90
17728;DHT22;8984;49.268;12.302;2022-10-31T15:20:20;20.00;99.90
17728;DHT22;8984;49.268;12.302;2022-10-31T15:22:49;19.90;99.90
17728;DHT22;8984;49.268;12.302;2022-10-31T15:25:18;19.80;99.90
17728;DHT22;8984;49.268;12.302;2022-10-31T15:27:46;19.70;99.90
17728;DHT22;8984;49.268;12.302;2022-10-31T15:30:20;19.60;99.90
17728;DHT22;8984;49.268;12.302;2022-10-31T15:32:48;19.60;99.90
17728;DHT22;8984;49.268;12.302;2022-10-31T15:35:21;19.50;99.90
17728;DHT22;8984;49.268;12.302;2022-10-31T15:37:48;19.40;99.90
17728;DHT22;8984;49.268;12.302;2022-10-31T15:40:17;19.30;99.90
17728;DHT22;8984;49.268;12.302;2022-10-31T15:42:49;19.30;99.90
17728;DHT22;8984;49.268;12.302;2022-10-31T15:45:20;19.20;99.90
17728;DHT22;8984;49.268;12.302;2022-10-31T15:47:54;19.10;99.90
17728;DHT22;8984;49.268;12.302;2022-10-31T15:50:27;19.10;99.90
17728;DHT22;8984;49.268;12.302;2022-10-31T15:52:54;18.90;99.90
17728;DHT22;8984;49.268;12.302;2022-10-31T15:55:24;18.90;99.90
17728;DHT22;8984;49.268;12.302;2022-10-31T15:57:53;18.80;99.90
17728;DHT22;8984;49.268;12.302;2022-10-31T16:00:25;18.60;99.90
17728;DHT22;8984;49.268;12.302;2022-10-31T16:03:06;18.60;99.90